sensor_id;sensor_type;location;lat;lon;timestamp;pressure;altitude;pressure_sealevel;temperature;humidity
38630;BME280;24384;51.988;4.644;2024-03-23T00:53:07;101050.91;;;7.74;nan
38630;BME280;24384;51.988;4.644;2024-03-23T00:55:32;101053.59;;;7.71;nan
38630;BME280;24384;51.988;4.644;2024-03-23T00:57:58;101048.28;;;7.74;nan
38630;BME280;24384;51.988;4.644;2024-03-23T01:00:23;101039.09;;;7.48;nan
38630;BME280;24384;51.988;4.644;2024-03-23T01:02:48;101027.56;;;7.59;nan
38630;BME280;24384;51.988;4.644;2024-03-23T01:05:14;101033.78;;;7.53;nan
38630;BME280;24384;51.988;4.644;2024-03-23T01:07:40;101035.75;;;7.40;nan
38630;BME280;24384;51.988;4.644;2024-03-23T01:10:06;101039.50;;;7.24;nan
38630;BME280;24384;51.988;4.644;2024-03-23T01:12:31;101034.50;;;7.08;nan
38630;BME280;24384;51.988;4.644;2024-03-23T01:14:56;101031.06;;;7.05;nan
38630;BME280;24384;51.988;4.644;2024-03-23T01:17:22;101027.66;;;6.98;nan
38630;BME280;24384;51.988;4.644;2024-03-23T01:19:47;101024.16;;;6.99;nan
38630;BME280;24384;51.988;4.644;2024-03-23T01:22:12;101026.88;;;6.93;nan
38630;BME280;24384;51.988;4.644;2024-03-23T01:24:38;101034.63;;;6.99;nan
38630;BME280;24384;51.988;4.644;2024-03-23T01:27:03;101028.41;;;7.06;nan
38630;BME280;24384;51.988;4.644;2024-03-23T01:29:29;101022.34;;;7.01;nan
38630;BME280;24384;51.988;4.644;2024-03-23T01:31:54;101025.00;;;6.99;nan
38630;BME280;24384;51.988;4.644;2024-03-23T01:34:19;101017.22;;;6.93;nan
38630;BME280;24384;51.988;4.644;2024-03-23T01:36:46;101023.38;;;6.92;nan
38630;BME280;24384;51.988;4.644;2024-03-23T01:39:11;101020.75;;;6.94;nan
38630;BME280;24384;51.988;4.644;2024-03-23T01:41:37;101018.19;;;6.89;nan
38630;BME280;24384;51.988;4.644;2024-03-23T01:44:05;101017.13;;;7.01;nan
38630;BME280;24384;51.988;4.644;2024-03-23T01:46:32;101010.06;;;7.06;nan
38630;BME280;24384;51.988;4.644;2024-03-23T01:48:58;101016.97;;;7.10;nan
38630;BME280;24384;51.988;4.644;2024-03-23T01:51:23;101013.63;;;7.01;nan
38630;BME280;24384;51.988;4.644;2024-03-23T01:53:49;101013.69;;;6.97;nan
38630;BME280;24384;51.988;4.644;2024-03-23T01:56:15;101017.94;;;7.05;nan
38630;BME280;24384;51.988;4.644;2024-03-23T01:58:40;101012.72;;;7.03;nan
38630;BME280;24384;51.988;4.644;2024-03-23T02:01:06;101007.50;;;7.02;nan
38630;BME280;24384;51.988;4.644;2024-03-23T02:03:31;101005.69;;;7.07;nan
38630;BME280;24384;51.988;4.644;2024-03-23T02:05:57;101004.03;;;6.99;nan
38630;BME280;24384;51.988;4.644;2024-03-23T02:08:23;100997.97;;;6.96;nan
38630;BME280;24384;51.988;4.644;2024-03-23T02:10:50;100996.19;;;6.98;nan
38630;BME280;24384;51.988;4.644;2024-03-23T02:13:16;101002.50;;;6.86;nan
38630;BME280;24384;51.988;4.644;2024-03-23T02:15:41;101000.81;;;6.80;nan
38630;BME280;24384;51.988;4.644;2024-03-23T02:18:07;100994.94;;;6.66;nan
38630;BME280;24384;51.988;4.644;2024-03-23T02:20:34;100990.69;;;6.57;nan
38630;BME280;24384;51.988;4.644;2024-03-23T02:22:59;100993.09;;;6.71;nan
38630;BME280;24384;51.988;4.644;2024-03-23T02:25:24;100992.31;;;6.66;nan
38630;BME280;24384;51.988;4.644;2024-03-23T02:27:49;100991.63;;;6.50;nan
38630;BME280;24384;51.988;4.644;2024-03-23T02:30:15;100990.81;;;6.48;nan
38630;BME280;24384;51.988;4.644;2024-03-23T02:32:40;100988.25;;;6.43;nan
38630;BME280;24384;51.988;4.644;2024-03-23T02:35:06;100987.25;;;6.52;nan
38630;BME280;24384;51.988;4.644;2024-03-23T02:37:31;100987.34;;;6.46;nan
38630;BME280;24384;51.988;4.644;2024-03-23T02:39:58;100983.72;;;6.55;nan
38630;BME280;24384;51.988;4.644;2024-03-23T02:42:23;100990.78;;;6.50;nan
38630;BME280;24384;51.988;4.644;2024-03-23T02:44:48;100989.94;;;6.48;nan
38630;BME280;24384;51.988;4.644;2024-03-23T02:47:14;100991.72;;;6.44;nan
38630;BME280;24384;51.988;4.644;2024-03-23T02:49:39;100982.19;;;6.41;nan
38630;BME280;24384;51.988;4.644;2024-03-23T02:52:04;100975.44;;;6.22;nan
38630;BME280;24384;51.988;4.644;2024-03-23T02:54:30;100978.09;;;6.19;nan
38630;BME280;24384;51.988;4.644;2024-03-23T02:56:55;100978.94;;;6.21;nan
38630;BME280;24384;51.988;4.644;2024-03-23T02:59:20;100980.69;;;6.20;nan
38630;BME280;24384;51.988;4.644;2024-03-23T03:01:46;100977.41;;;6.04;nan
38630;BME280;24384;51.988;4.644;2024-03-23T03:04:11;100977.31;;;6.12;nan
38630;BME280;24384;51.988;4.644;2024-03-23T03:06:37;100972.22;;;6.00;nan
38630;BME280;24384;51.988;4.644;2024-03-23T03:09:02;100970.53;;;5.91;nan
38630;BME280;24384;51.988;4.644;2024-03-23T03:11:28;100967.97;;;5.88;nan
38630;BME280;24384;51.988;4.644;2024-03-23T03:13:53;100970.53;;;5.92;nan
38630;BME280;24384;51.988;4.644;2024-03-23T03:16:18;100965.31;;;5.89;nan
38630;BME280;24384;51.988;4.644;2024-03-23T03:18:44;100961.00;;;5.84;nan
38630;BME280;24384;51.988;4.644;2024-03-23T03:21:11;100971.53;;;5.81;nan
38630;BME280;24384;51.988;4.644;2024-03-23T03:23:39;100975.03;;;5.80;nan
38630;BME280;24384;51.988;4.644;2024-03-23T03:26:05;100975.06;;;5.77;nan
38630;BME280;24384;51.988;4.644;2024-03-23T03:28:34;100971.63;;;5.70;nan
38630;BME280;24384;51.988;4.644;2024-03-23T03:31:00;100970.69;;;5.79;nan
38630;BME280;24384;51.988;4.644;2024-03-23T03:33:29;100964.59;;;5.78;nan
38630;BME280;24384;51.988;4.644;2024-03-23T03:35:54;100963.72;;;5.76;nan
38630;BME280;24384;51.988;4.644;2024-03-23T03:38:20;100955.94;;;5.70;nan
38630;BME280;24384;51.988;4.644;2024-03-23T03:40:45;100960.22;;;5.77;nan
38630;BME280;24384;51.988;4.644;2024-03-23T03:43:11;100962.94;;;5.69;nan
38630;BME280;24384;51.988;4.644;2024-03-23T03:45:36;100956.75;;;5.77;nan
38630;BME280;24384;51.988;4.644;2024-03-23T03:48:02;100950.56;;;5.81;nan
38630;BME280;24384;51.988;4.644;2024-03-23T03:50:27;100954.06;;;5.84;nan
38630;BME280;24384;51.988;4.644;2024-03-23T03:52:52;100945.22;;;5.91;nan
38630;BME280;24384;51.988;4.644;2024-03-23T03:55:18;100939.25;;;5.82;nan
38630;BME280;24384;51.988;4.644;2024-03-23T03:57:43;100942.63;;;5.88;nan
38630;BME280;24384;51.988;4.644;2024-03-23T04:00:09;100940.00;;;5.90;nan
38630;BME280;24384;51.988;4.644;2024-03-23T04:02:38;100937.41;;;5.87;nan
38630;BME280;24384;51.988;4.644;2024-03-23T04:05:04;100933.13;;;5.83;nan
38630;BME280;24384;51.988;4.644;2024-03-23T04:07:29;100938.41;;;5.78;nan
38630;BME280;24384;51.988;4.644;2024-03-23T04:09:54;100935.88;;;5.72;nan
38630;BME280;24384;51.988;4.644;2024-03-23T04:12:20;100938.50;;;5.70;nan
38630;BME280;24384;51.988;4.644;2024-03-23T04:14:45;100934.94;;;5.76;nan
38630;BME280;24384;51.988;4.644;2024-03-23T04:17:11;100923.69;;;5.69;nan
38630;BME280;24384;51.988;4.644;2024-03-23T04:19:36;100935.81;;;5.77;nan
38630;BME280;24384;51.988;4.644;2024-03-23T04:22:01;100922.78;;;5.72;nan
38630;BME280;24384;51.988;4.644;2024-03-23T04:24:27;100925.53;;;5.60;nan
38630;BME280;24384;51.988;4.644;2024-03-23T04:26:52;100922.84;;;5.66;nan
38630;BME280;24384;51.988;4.644;2024-03-23T04:29:18;100931.53;;;5.69;nan
38630;BME280;24384;51.988;4.644;2024-03-23T04:31:43;100925.59;;;5.55;nan
38630;BME280;24384;51.988;4.644;2024-03-23T04:34:08;100921.16;;;5.60;nan
38630;BME280;24384;51.988;4.644;2024-03-23T04:36:34;100929.03;;;5.57;nan
38630;BME280;24384;51.988;4.644;2024-03-23T04:39:00;100927.25;;;5.61;nan
38630;BME280;24384;51.988;4.644;2024-03-23T04:41:25;100930.75;;;5.63;nan
38630;BME280;24384;51.988;4.644;2024-03-23T04:43:51;100927.22;;;5.64;nan
38630;BME280;24384;51.988;4.644;2024-03-23T04:46:16;100923.03;;;5.49;nan
38630;BME280;24384;51.988;4.644;2024-03-23T04:48:41;100924.72;;;5.54;nan
38630;BME280;24384;51.988;4.644;2024-03-23T04:51:09;100918.53;;;5.62;nan
38630;BME280;24384;51.988;4.644;2024-03-23T04:53:37;100917.63;;;5.66;nan
38630;BME280;24384;51.988;4.644;2024-03-23T04:56:03;100918.72;;;5.45;nan
38630;BME280;24384;51.988;4.644;2024-03-23T04:58:29;100917.03;;;5.39;nan
38630;BME280;24384;51.988;4.644;2024-03-23T05:00:55;100924.06;;;5.34;nan
38630;BME280;24384;51.988;4.644;2024-03-23T05:03:21;100928.34;;;5.43;nan
38630;BME280;24384;51.988;4.644;2024-03-23T05:05:49;100924.00;;;5.40;nan
38630;BME280;24384;51.988;4.644;2024-03-23T05:08:15;100927.25;;;5.61;nan
38630;BME280;24384;51.988;4.644;2024-03-23T05:10:42;100934.16;;;5.69;nan
38630;BME280;24384;51.988;4.644;2024-03-23T05:13:07;100930.72;;;5.66;nan
38630;BME280;24384;51.988;4.644;2024-03-23T05:15:33;100930.78;;;5.60;nan
38630;BME280;24384;51.988;4.644;2024-03-23T05:17:58;100925.50;;;5.64;nan
38630;BME280;24384;51.988;4.644;2024-03-23T05:20:23;100934.09;;;5.72;nan
38630;BME280;24384;51.988;4.644;2024-03-23T05:22:49;100930.41;;;5.90;nan
38630;BME280;24384;51.988;4.644;2024-03-23T05:25:14;100925.25;;;5.86;nan
38630;BME280;24384;51.988;4.644;2024-03-23T05:27:41;100933.06;;;5.89;nan
38630;BME280;24384;51.988;4.644;2024-03-23T05:30:07;100925.22;;;5.87;nan
38630;BME280;24384;51.988;4.644;2024-03-23T05:32:32;100919.88;;;5.98;nan
38630;BME280;24384;51.988;4.644;2024-03-23T05:35:00;100920.00;;;5.86;nan
38630;BME280;24384;51.988;4.644;2024-03-23T05:37:26;100920.03;;;5.84;nan
38630;BME280;24384;51.988;4.644;2024-03-23T05:39:51;100923.56;;;5.80;nan
38630;BME280;24384;51.988;4.644;2024-03-23T05:42:17;100916.44;;;5.90;nan
38630;BME280;24384;51.988;4.644;2024-03-23T05:44:46;100922.53;;;5.92;nan
38630;BME280;24384;51.988;4.644;2024-03-23T05:47:12;100921.78;;;5.82;nan
38630;BME280;24384;51.988;4.644;2024-03-23T05:49:42;100919.09;;;5.87;nan
38630;BME280;24384;51.988;4.644;2024-03-23T05:52:10;100913.81;;;5.90;nan
38630;BME280;24384;51.988;4.644;2024-03-23T05:54:36;100906.91;;;5.86;nan
38630;BME280;24384;51.988;4.644;2024-03-23T05:57:01;100913.84;;;5.88;nan
38630;BME280;24384;51.988;4.644;2024-03-23T05:59:27;100918.16;;;5.92;nan
38630;BME280;24384;51.988;4.644;2024-03-23T06:01:53;100918.09;;;6.02;nan
38630;BME280;24384;51.988;4.644;2024-03-23T06:04:18;100926.81;;;6.01;nan
38630;BME280;24384;51.988;4.644;2024-03-23T06:06:44;100922.53;;;5.97;nan
38630;BME280;24384;51.988;4.644;2024-03-23T06:09:09;100931.19;;;6.00;nan
38630;BME280;24384;51.988;4.644;2024-03-23T06:11:34;100922.34;;;6.11;nan
38630;BME280;24384;51.988;4.644;2024-03-23T06:14:00;100924.06;;;6.12;nan
38630;BME280;24384;51.988;4.644;2024-03-23T06:16:25;100928.41;;;6.13;nan
38630;BME280;24384;51.988;4.644;2024-03-23T06:18:52;100929.25;;;6.15;nan
38630;BME280;24384;51.988;4.644;2024-03-23T06:21:17;100935.31;;;6.20;nan
38630;BME280;24384;51.988;4.644;2024-03-23T06:23:43;100925.66;;;6.23;nan
38630;BME280;24384;51.988;4.644;2024-03-23T06:26:13;100924.72;;;6.27;nan
38630;BME280;24384;51.988;4.644;2024-03-23T06:28:38;100914.97;;;6.37;nan
38630;BME280;24384;51.988;4.644;2024-03-23T06:31:09;100918.56;;;6.30;nan
38630;BME280;24384;51.988;4.644;2024-03-23T06:33:34;100923.75;;;6.33;nan
38630;BME280;24384;51.988;4.644;2024-03-23T06:35:59;100921.81;;;6.49;nan
38630;BME280;24384;51.988;4.644;2024-03-23T06:38:24;100927.81;;;6.56;nan
38630;BME280;24384;51.988;4.644;2024-03-23T06:40:50;100920.69;;;6.64;nan
38630;BME280;24384;51.988;4.644;2024-03-23T06:43:17;100927.75;;;6.59;nan
38630;BME280;24384;51.988;4.644;2024-03-23T06:45:43;100919.00;;;6.61;nan
38630;BME280;24384;51.988;4.644;2024-03-23T06:48:09;100927.03;;;6.51;nan
38630;BME280;24384;51.988;4.644;2024-03-23T06:50:34;100934.81;;;6.55;nan
38630;BME280;24384;51.988;4.644;2024-03-23T06:53:01;100931.22;;;6.61;nan
38630;BME280;24384;51.988;4.644;2024-03-23T06:55:27;100921.44;;;6.72;nan
38630;BME280;24384;51.988;4.644;2024-03-23T06:57:53;100927.53;;;6.74;nan
38630;BME280;24384;51.988;4.644;2024-03-23T07:00:18;100926.75;;;6.68;nan
38630;BME280;24384;51.988;4.644;2024-03-23T07:02:44;100929.69;;;6.48;nan
38630;BME280;24384;51.988;4.644;2024-03-23T07:05:10;100929.34;;;6.71;nan
38630;BME280;24384;51.988;4.644;2024-03-23T07:07:36;100928.97;;;6.94;nan
38630;BME280;24384;51.988;4.644;2024-03-23T07:10:01;100933.97;;;7.08;nan
38630;BME280;24384;51.988;4.644;2024-03-23T07:12:27;100934.84;;;7.08;nan
38630;BME280;24384;51.988;4.644;2024-03-23T07:14:53;100925.16;;;7.12;nan
38630;BME280;24384;51.988;4.644;2024-03-23T07:17:18;100925.94;;;7.19;nan
38630;BME280;24384;51.988;4.644;2024-03-23T07:19:43;100921.16;;;6.91;nan
38630;BME280;24384;51.988;4.644;2024-03-23T07:22:09;100930.84;;;6.84;nan
38630;BME280;24384;51.988;4.644;2024-03-23T07:24:35;100937.22;;;6.69;nan
38630;BME280;24384;51.988;4.644;2024-03-23T07:27:00;100929.28;;;6.74;nan
38630;BME280;24384;51.988;4.644;2024-03-23T07:29:27;100933.50;;;6.82;nan
38630;BME280;24384;51.988;4.644;2024-03-23T07:31:52;100928.97;;;6.94;nan
38630;BME280;24384;51.988;4.644;2024-03-23T07:34:18;100934.19;;;6.95;nan
38630;BME280;24384;51.988;4.644;2024-03-23T07:36:43;100932.72;;;7.29;nan
38630;BME280;24384;51.988;4.644;2024-03-23T07:39:08;100929.78;;;7.46;nan
38630;BME280;24384;51.988;4.644;2024-03-23T07:41:34;100941.91;;;7.53;nan
38630;BME280;24384;51.988;4.644;2024-03-23T07:44:00;100925.22;;;7.57;nan
38630;BME280;24384;51.988;4.644;2024-03-23T07:46:25;100935.53;;;7.18;nan
38630;BME280;24384;51.988;4.644;2024-03-23T07:48:51;100926.81;;;7.17;nan
38630;BME280;24384;51.988;4.644;2024-03-23T07:51:21;100929.44;;;7.17;nan
38630;BME280;24384;51.988;4.644;2024-03-23T07:53:47;100918.84;;;7.24;nan
38630;BME280;24384;51.988;4.644;2024-03-23T07:56:15;100924.69;;;7.38;nan
38630;BME280;24384;51.988;4.644;2024-03-23T07:58:40;100924.19;;;7.64;nan
38630;BME280;24384;51.988;4.644;2024-03-23T08:01:10;100927.56;;;7.71;nan
38630;BME280;24384;51.988;4.644;2024-03-23T08:03:37;100923.63;;;7.48;nan
38630;BME280;24384;51.988;4.644;2024-03-23T08:06:14;100914.41;;;7.26;nan
38630;BME280;24384;51.988;4.644;2024-03-23T08:08:41;100927.56;;;7.24;nan
38630;BME280;24384;51.988;4.644;2024-03-23T08:11:07;100931.13;;;7.22;nan
38630;BME280;24384;51.988;4.644;2024-03-23T08:13:33;100925.59;;;7.37;nan
38630;BME280;24384;51.988;4.644;2024-03-23T08:16:00;100927.72;;;7.63;nan
38630;BME280;24384;51.988;4.644;2024-03-23T08:18:25;100921.91;;;7.91;nan
38630;BME280;24384;51.988;4.644;2024-03-23T08:23:30;100930.75;;;8.28;nan
38630;BME280;24384;51.988;4.644;2024-03-23T08:26:03;100917.06;;;8.13;nan
38630;BME280;24384;51.988;4.644;2024-03-23T08:28:28;100925.56;;;8.24;nan
38630;BME280;24384;51.988;4.644;2024-03-23T08:30:54;100920.88;;;8.39;nan
38630;BME280;24384;51.988;4.644;2024-03-23T08:33:20;100923.66;;;7.91;nan
38630;BME280;24384;51.988;4.644;2024-03-23T08:36:00;100936.88;;;7.86;nan
38630;BME280;24384;51.988;4.644;2024-03-23T08:38:26;100932.84;;;7.69;nan
38630;BME280;24384;51.988;4.644;2024-03-23T08:43:31;100921.69;;;8.02;nan
38630;BME280;24384;51.988;4.644;2024-03-23T08:48:43;100908.00;;;8.67;nan
38630;BME280;24384;51.988;4.644;2024-03-23T08:51:10;100918.63;;;8.63;nan
38630;BME280;24384;51.988;4.644;2024-03-23T08:53:36;100914.38;;;8.93;nan
38630;BME280;24384;51.988;4.644;2024-03-23T08:56:02;100915.31;;;8.90;nan
38630;BME280;24384;51.988;4.644;2024-03-23T08:58:29;100923.94;;;8.20;nan
38630;BME280;24384;51.988;4.644;2024-03-23T09:00:56;100934.78;;;7.11;nan
38630;BME280;24384;51.988;4.644;2024-03-23T09:03:25;100924.66;;;6.90;nan
38630;BME280;24384;51.988;4.644;2024-03-23T09:05:51;100921.22;;;6.88;nan
38630;BME280;24384;51.988;4.644;2024-03-23T09:08:17;100933.88;;;7.14;nan
38630;BME280;24384;51.988;4.644;2024-03-23T09:10:43;100928.53;;;7.20;nan
38630;BME280;24384;51.988;4.644;2024-03-23T09:13:08;100922.50;;;7.13;nan
38630;BME280;24384;51.988;4.644;2024-03-23T09:15:35;100928.03;;;7.46;nan
38630;BME280;24384;51.988;4.644;2024-03-23T09:18:02;100925.00;;;7.68;nan
38630;BME280;24384;51.988;4.644;2024-03-23T09:20:27;100933.53;;;7.79;nan
38630;BME280;24384;51.988;4.644;2024-03-23T09:22:52;100927.84;;;7.57;nan
38630;BME280;24384;51.988;4.644;2024-03-23T09:25:18;100933.28;;;7.46;nan
38630;BME280;24384;51.988;4.644;2024-03-23T09:27:46;100930.47;;;7.57;nan
38630;BME280;24384;51.988;4.644;2024-03-23T09:30:12;100931.53;;;7.47;nan
38630;BME280;24384;51.988;4.644;2024-03-23T09:32:37;100929.97;;;7.35;nan
38630;BME280;24384;51.988;4.644;2024-03-23T09:35:03;100954.53;;;7.32;nan
38630;BME280;24384;51.988;4.644;2024-03-23T09:37:29;100939.50;;;7.41;nan
38630;BME280;24384;51.988;4.644;2024-03-23T09:39:54;100932.50;;;7.88;nan
38630;BME280;24384;51.988;4.644;2024-03-23T09:42:20;100927.31;;;7.83;nan
38630;BME280;24384;51.988;4.644;2024-03-23T09:44:46;100926.31;;;7.89;nan
38630;BME280;24384;51.988;4.644;2024-03-23T09:47:12;100934.88;;;7.53;nan
38630;BME280;24384;51.988;4.644;2024-03-23T09:49:37;100930.06;;;7.30;nan
38630;BME280;24384;51.988;4.644;2024-03-23T09:52:03;100936.84;;;7.42;nan
38630;BME280;24384;51.988;4.644;2024-03-23T09:54:28;100919.25;;;8.33;nan
38630;BME280;24384;51.988;4.644;2024-03-23T09:56:53;100911.75;;;8.93;nan
38630;BME280;24384;51.988;4.644;2024-03-23T09:59:21;100916.19;;;9.25;nan
38630;BME280;24384;51.988;4.644;2024-03-23T10:01:46;100910.34;;;9.12;nan
38630;BME280;24384;51.988;4.644;2024-03-23T10:04:38;100918.31;;;8.75;nan
38630;BME280;24384;51.988;4.644;2024-03-23T10:07:20;100913.31;;;8.64;nan
38630;BME280;24384;51.988;4.644;2024-03-23T10:09:46;100915.16;;;8.60;nan
38630;BME280;24384;51.988;4.644;2024-03-23T10:12:17;100918.91;;;8.86;nan
38630;BME280;24384;51.988;4.644;2024-03-23T10:14:43;100919.25;;;9.08;nan
38630;BME280;24384;51.988;4.644;2024-03-23T10:19:38;100915.50;;;9.52;nan
38630;BME280;24384;51.988;4.644;2024-03-23T10:22:04;100914.75;;;9.78;nan
38630;BME280;24384;51.988;4.644;2024-03-23T10:24:29;100909.94;;;9.92;nan
38630;BME280;24384;51.988;4.644;2024-03-23T10:26:57;100924.16;;;9.55;nan
38630;BME280;24384;51.988;4.644;2024-03-23T10:29:23;100921.09;;;8.69;nan
38630;BME280;24384;51.988;4.644;2024-03-23T10:31:48;100919.13;;;9.46;nan
38630;BME280;24384;51.988;4.644;2024-03-23T10:34:14;100918.25;;;10.08;nan
38630;BME280;24384;51.988;4.644;2024-03-23T10:36:41;100906.94;;;9.75;nan
38630;BME280;24384;51.988;4.644;2024-03-23T10:39:07;100907.84;;;9.08;nan
38630;BME280;24384;51.988;4.644;2024-03-23T10:41:33;100907.00;;;8.73;nan
38630;BME280;24384;51.988;4.644;2024-03-23T10:43:58;100917.31;;;8.41;nan
38630;BME280;24384;51.988;4.644;2024-03-23T10:46:25;100909.47;;;8.40;nan
38630;BME280;24384;51.988;4.644;2024-03-23T10:48:50;100915.50;;;8.83;nan
38630;BME280;24384;51.988;4.644;2024-03-23T10:51:16;100907.69;;;9.14;nan
38630;BME280;24384;51.988;4.644;2024-03-23T10:53:41;100911.16;;;9.16;nan
38630;BME280;24384;51.988;4.644;2024-03-23T10:56:08;100900.78;;;10.06;nan
38630;BME280;24384;51.988;4.644;2024-03-23T10:58:38;100898.84;;;10.41;nan
38630;BME280;24384;51.988;4.644;2024-03-23T11:01:05;100908.00;;;10.57;nan
38630;BME280;24384;51.988;4.644;2024-03-23T11:05:55;100902.22;;;10.99;nan
38630;BME280;24384;51.988;4.644;2024-03-23T11:08:41;100893.78;;;11.15;nan
38630;BME280;24384;51.988;4.644;2024-03-23T11:11:20;100902.28;;;11.23;nan
38630;BME280;24384;51.988;4.644;2024-03-23T11:13:51;100898.88;;;11.70;nan
38630;BME280;24384;51.988;4.644;2024-03-23T11:16:28;100897.53;;;11.07;nan
38630;BME280;24384;51.988;4.644;2024-03-23T11:19:33;100913.06;;;11.17;nan
38630;BME280;24384;51.988;4.644;2024-03-23T11:21:58;100907.94;;;11.62;nan
38630;BME280;24384;51.988;4.644;2024-03-23T11:24:24;100900.59;;;11.96;nan
38630;BME280;24384;51.988;4.644;2024-03-23T11:26:49;100897.31;;;11.64;nan
38630;BME280;24384;51.988;4.644;2024-03-23T11:29:16;100894.34;;;10.98;nan
38630;BME280;24384;51.988;4.644;2024-03-23T11:31:51;100898.16;;;11.64;nan
38630;BME280;24384;51.988;4.644;2024-03-23T11:34:18;100883.13;;;11.90;nan
38630;BME280;24384;51.988;4.644;2024-03-23T11:36:44;100885.63;;;11.95;nan
38630;BME280;24384;51.988;4.644;2024-03-23T11:39:19;100882.38;;;12.56;nan
38630;BME280;24384;51.988;4.644;2024-03-23T11:41:50;100875.78;;;11.26;nan
38630;BME280;24384;51.988;4.644;2024-03-23T11:44:26;100885.53;;;10.99;nan
38630;BME280;24384;51.988;4.644;2024-03-23T11:46:52;100878.91;;;11.12;nan
38630;BME280;24384;51.988;4.644;2024-03-23T11:49:27;100889.09;;;10.71;nan
38630;BME280;24384;51.988;4.644;2024-03-23T11:51:55;100881.06;;;10.17;nan
38630;BME280;24384;51.988;4.644;2024-03-23T11:54:24;100880.53;;;9.78;nan
38630;BME280;24384;51.988;4.644;2024-03-23T11:56:56;100907.38;;;9.26;nan
38630;BME280;24384;51.988;4.644;2024-03-23T11:59:33;100878.53;;;9.55;nan
38630;BME280;24384;51.988;4.644;2024-03-23T12:01:58;100873.56;;;9.75;nan
38630;BME280;24384;51.988;4.644;2024-03-23T12:04:30;100867.97;;;9.23;nan
38630;BME280;24384;51.988;4.644;2024-03-23T12:07:18;100870.63;;;10.14;nan
38630;BME280;24384;51.988;4.644;2024-03-23T12:09:44;100855.00;;;11.65;nan
38630;BME280;24384;51.988;4.644;2024-03-23T12:12:15;100862.47;;;12.68;nan
38630;BME280;24384;51.988;4.644;2024-03-23T12:14:45;100859.81;;;13.71;nan
38630;BME280;24384;51.988;4.644;2024-03-23T12:17:14;100854.44;;;15.01;nan
38630;BME280;24384;51.988;4.644;2024-03-23T12:19:40;100848.13;;;15.03;nan
38630;BME280;24384;51.988;4.644;2024-03-23T12:22:07;100856.28;;;15.67;nan
38630;BME280;24384;51.988;4.644;2024-03-23T12:24:32;100843.72;;;14.31;nan
38630;BME280;24384;51.988;4.644;2024-03-23T12:27:02;100833.88;;;12.56;nan
38630;BME280;24384;51.988;4.644;2024-03-23T12:29:29;100858.41;;;10.68;nan
38630;BME280;24384;51.988;4.644;2024-03-23T12:31:54;100856.22;;;11.32;nan
38630;BME280;24384;51.988;4.644;2024-03-23T12:34:21;100849.97;;;10.84;nan
38630;BME280;24384;51.988;4.644;2024-03-23T12:36:46;100845.22;;;10.13;nan
38630;BME280;24384;51.988;4.644;2024-03-23T12:39:13;100857.25;;;9.62;nan
38630;BME280;24384;51.988;4.644;2024-03-23T12:41:38;100863.31;;;9.94;nan
38630;BME280;24384;51.988;4.644;2024-03-23T12:44:03;100858.44;;;9.82;nan
38630;BME280;24384;51.988;4.644;2024-03-23T12:46:28;100868.47;;;9.69;nan
38630;BME280;24384;51.988;4.644;2024-03-23T12:48:54;100859.41;;;9.79;nan
38630;BME280;24384;51.988;4.644;2024-03-23T12:51:19;100857.91;;;9.99;nan
38630;BME280;24384;51.988;4.644;2024-03-23T12:53:44;100853.97;;;10.14;nan
38630;BME280;24384;51.988;4.644;2024-03-23T12:56:13;100853.78;;;10.20;nan
38630;BME280;24384;51.988;4.644;2024-03-23T12:58:38;100844.28;;;12.38;nan
38630;BME280;24384;51.988;4.644;2024-03-23T13:01:03;100837.97;;;12.42;nan
38630;BME280;24384;51.988;4.644;2024-03-23T13:03:28;100838.06;;;11.71;nan
38630;BME280;24384;51.988;4.644;2024-03-23T13:05:54;100835.75;;;11.13;nan
38630;BME280;24384;51.988;4.644;2024-03-23T13:08:19;100820.56;;;10.95;nan
38630;BME280;24384;51.988;4.644;2024-03-23T13:10:44;100840.72;;;10.97;nan
38630;BME280;24384;51.988;4.644;2024-03-23T13:13:10;100836.56;;;10.65;nan
38630;BME280;24384;51.988;4.644;2024-03-23T13:15:35;100818.59;;;11.50;nan
38630;BME280;24384;51.988;4.644;2024-03-23T13:18:00;100829.19;;;10.74;nan
38630;BME280;24384;51.988;4.644;2024-03-23T13:20:26;100809.66;;;10.25;nan
38630;BME280;24384;51.988;4.644;2024-03-23T13:22:51;100822.59;;;10.34;nan
38630;BME280;24384;51.988;4.644;2024-03-23T13:25:17;100821.03;;;9.71;nan
38630;BME280;24384;51.988;4.644;2024-03-23T13:27:44;100813.88;;;9.74;nan
38630;BME280;24384;51.988;4.644;2024-03-23T13:30:09;100814.41;;;9.87;nan
38630;BME280;24384;51.988;4.644;2024-03-23T13:32:35;100817.63;;;9.36;nan
38630;BME280;24384;51.988;4.644;2024-03-23T13:35:00;100824.19;;;9.52;nan
38630;BME280;24384;51.988;4.644;2024-03-23T13:37:26;100819.50;;;9.01;nan
38630;BME280;24384;51.988;4.644;2024-03-23T13:39:53;100813.16;;;9.69;nan
38630;BME280;24384;51.988;4.644;2024-03-23T13:42:19;100806.13;;;11.54;nan
38630;BME280;24384;51.988;4.644;2024-03-23T13:44:44;100805.84;;;12.72;nan
38630;BME280;24384;51.988;4.644;2024-03-23T13:47:09;100812.13;;;13.11;nan
38630;BME280;24384;51.988;4.644;2024-03-23T13:49:35;100813.44;;;12.16;nan
38630;BME280;24384;51.988;4.644;2024-03-23T13:52:01;100818.63;;;10.74;nan
38630;BME280;24384;51.988;4.644;2024-03-23T13:54:28;100802.31;;;10.08;nan
38630;BME280;24384;51.988;4.644;2024-03-23T13:56:55;100799.56;;;9.55;nan
38630;BME280;24384;51.988;4.644;2024-03-23T13:59:21;100803.44;;;9.41;nan
38630;BME280;24384;51.988;4.644;2024-03-23T14:01:48;100823.16;;;9.26;nan
38630;BME280;24384;51.988;4.644;2024-03-23T14:04:14;100812.72;;;8.57;nan
38630;BME280;24384;51.988;4.644;2024-03-23T14:06:42;100852.91;;;8.23;nan
38630;BME280;24384;51.988;4.644;2024-03-23T14:09:07;100824.22;;;8.52;nan
38630;BME280;24384;51.988;4.644;2024-03-23T14:11:35;100814.72;;;8.46;nan
38630;BME280;24384;51.988;4.644;2024-03-23T14:14:02;100817.50;;;9.09;nan
38630;BME280;24384;51.988;4.644;2024-03-23T14:16:28;100817.47;;;10.28;nan
38630;BME280;24384;51.988;4.644;2024-03-23T14:18:54;100811.09;;;11.61;nan
38630;BME280;24384;51.988;4.644;2024-03-23T14:21:19;100812.31;;;12.44;nan